sensor_id;sensor_type;location;lat;lon;timestamp;temperature;humidity
40630;DHT22;26329;40.388;-3.710;2023-05-07T00:02:02;21.40;36.40
40630;DHT22;26329;40.388;-3.710;2023-05-07T00:12:04;21.40;35.40
40630;DHT22;26329;40.388;-3.710;2023-05-07T00:22:05;21.20;35.80
40630;DHT22;26329;40.388;-3.710;2023-05-07T00:32:06;20.90;37.30
40630;DHT22;26329;40.388;-3.710;2023-05-07T00:42:06;20.80;37.60
40630;DHT22;26329;40.388;-3.710;2023-05-07T00:52:15;20.80;38.10
40630;DHT22;26329;40.388;-3.710;2023-05-07T01:02:16;20.70;37.90
40630;DHT22;26329;40.388;-3.710;2023-05-07T01:12:17;20.70;37.90
40630;DHT22;26329;40.388;-3.710;2023-05-07T01:22:29;20.80;38.00
40630;DHT22;26329;40.388;-3.710;2023-05-07T01:32:38;20.80;38.40
40630;DHT22;26329;40.388;-3.710;2023-05-07T01:42:43;20.60;39.00
40630;DHT22;26329;40.388;-3.710;2023-05-07T01:52:44;20.50;39.30
40630;DHT22;26329;40.388;-3.710;2023-05-07T02:02:44;20.40;39.60
40630;DHT22;26329;40.388;-3.710;2023-05-07T02:12:45;20.30;39.70
40630;DHT22;26329;40.388;-3.710;2023-05-07T02:22:46;20.20;39.70
40630;DHT22;26329;40.388;-3.710;2023-05-07T02:32:47;20.30;39.60
40630;DHT22;26329;40.388;-3.710;2023-05-07T02:42:47;20.30;40.40
40630;DHT22;26329;40.388;-3.710;2023-05-07T02:52:48;20.20;41.00
40630;DHT22;26329;40.388;-3.710;2023-05-07T03:02:49;20.10;41.30
40630;DHT22;26329;40.388;-3.710;2023-05-07T03:12:50;20.00;41.60
40630;DHT22;26329;40.388;-3.710;2023-05-07T03:22:51;19.90;42.30
40630;DHT22;26329;40.388;-3.710;2023-05-07T03:32:51;19.80;43.10
40630;DHT22;26329;40.388;-3.710;2023-05-07T03:42:52;19.80;44.10
40630;DHT22;26329;40.388;-3.710;2023-05-07T03:52:53;19.60;44.90
40630;DHT22;26329;40.388;-3.710;2023-05-07T04:02:53;19.50;45.60
40630;DHT22;26329;40.388;-3.710;2023-05-07T04:12:54;19.30;47.40
40630;DHT22;26329;40.388;-3.710;2023-05-07T04:22:55;19.30;48.60
40630;DHT22;26329;40.388;-3.710;2023-05-07T04:32:56;19.10;48.80
40630;DHT22;26329;40.388;-3.710;2023-05-07T04:42:57;19.10;49.50
40630;DHT22;26329;40.388;-3.710;2023-05-07T04:52:58;18.90;50.10
40630;DHT22;26329;40.388;-3.710;2023-05-07T05:02:58;18.80;50.50
40630;DHT22;26329;40.388;-3.710;2023-05-07T05:12:59;18.90;50.40
40630;DHT22;26329;40.388;-3.710;2023-05-07T05:23:00;18.70;50.60
40630;DHT22;26329;40.388;-3.710;2023-05-07T05:33:01;18.60;50.90
40630;DHT22;26329;40.388;-3.710;2023-05-07T05:43:02;18.70;51.00
40630;DHT22;26329;40.388;-3.710;2023-05-07T05:53:03;18.70;51.10
40630;DHT22;26329;40.388;-3.710;2023-05-07T06:03:04;18.60;51.30
40630;DHT22;26329;40.388;-3.710;2023-05-07T06:13:05;18.40;51.40
40630;DHT22;26329;40.388;-3.710;2023-05-07T06:23:05;18.30;51.20
40630;DHT22;26329;40.388;-3.710;2023-05-07T06:33:06;18.30;51.30
40630;DHT22;26329;40.388;-3.710;2023-05-07T06:43:07;18.70;50.00
40630;DHT22;26329;40.388;-3.710;2023-05-07T06:53:08;19.50;48.50
40630;DHT22;26329;40.388;-3.710;2023-05-07T07:03:08;20.20;46.40
40630;DHT22;26329;40.388;-3.710;2023-05-07T07:13:10;20.60;45.60
40630;DHT22;26329;40.388;-3.710;2023-05-07T07:23:10;21.20;44.90
40630;DHT22;26329;40.388;-3.710;2023-05-07T07:33:11;21.80;43.90
40630;DHT22;26329;40.388;-3.710;2023-05-07T07:43:12;22.20;43.00
40630;DHT22;26329;40.388;-3.710;2023-05-07T07:53:12;22.40;42.30
40630;DHT22;26329;40.388;-3.710;2023-05-07T08:03:13;22.60;41.40
40630;DHT22;26329;40.388;-3.710;2023-05-07T08:13:17;22.90;40.40
40630;DHT22;26329;40.388;-3.710;2023-05-07T08:23:18;23.10;39.90
40630;DHT22;26329;40.388;-3.710;2023-05-07T08:33:19;23.30;38.60
40630;DHT22;26329;40.388;-3.710;2023-05-07T08:43:21;23.60;38.40
40630;DHT22;26329;40.388;-3.710;2023-05-07T08:53:26;23.70;38.00
40630;DHT22;26329;40.388;-3.710;2023-05-07T09:03:26;23.90;37.40
40630;DHT22;26329;40.388;-3.710;2023-05-07T09:13:28;24.20;37.00
40630;DHT22;26329;40.388;-3.710;2023-05-07T09:23:29;24.20;36.30
40630;DHT22;26329;40.388;-3.710;2023-05-07T09:33:31;24.30;36.30
40630;DHT22;26329;40.388;-3.710;2023-05-07T09:43:36;24.20;36.10
40630;DHT22;26329;40.388;-3.710;2023-05-07T09:53:38;24.30;35.90
40630;DHT22;26329;40.388;-3.710;2023-05-07T10:03:40;24.40;35.30
40630;DHT22;26329;40.388;-3.710;2023-05-07T10:13:43;24.30;35.20
40630;DHT22;26329;40.388;-3.710;2023-05-07T10:23:53;24.50;34.70
40630;DHT22;26329;40.388;-3.710;2023-05-07T10:33:59;24.50;34.60
40630;DHT22;26329;40.388;-3.710;2023-05-07T10:44:00;24.80;34.20
40630;DHT22;26329;40.388;-3.710;2023-05-07T11:04:15;25.30;33.70
40630;DHT22;26329;40.388;-3.710;2023-05-07T11:14:43;25.70;32.80
40630;DHT22;26329;40.388;-3.710;2023-05-07T11:24:44;25.80;32.20
40630;DHT22;26329;40.388;-3.710;2023-05-07T11:34:45;25.80;31.60
40630;DHT22;26329;40.388;-3.710;2023-05-07T11:44:47;26.10;30.70
40630;DHT22;26329;40.388;-3.710;2023-05-07T11:54:53;26.10;30.60
40630;DHT22;26329;40.388;-3.710;2023-05-07T12:04:55;25.90;30.60
40630;DHT22;26329;40.388;-3.710;2023-05-07T12:14:56;25.80;30.50
40630;DHT22;26329;40.388;-3.710;2023-05-07T12:24:57;26.40;29.50
40630;DHT22;26329;40.388;-3.710;2023-05-07T12:34:58;26.60;29.50
40630;DHT22;26329;40.388;-3.710;2023-05-07T12:44:59;26.60;29.60
40630;DHT22;26329;40.388;-3.710;2023-05-07T12:55:09;26.70;28.90
40630;DHT22;26329;40.388;-3.710;2023-05-07T13:05:10;26.80;28.70
40630;DHT22;26329;40.388;-3.710;2023-05-07T13:15:11;26.80;28.70
40630;DHT22;26329;40.388;-3.710;2023-05-07T13:25:11;26.70;28.70
40630;DHT22;26329;40.388;-3.710;2023-05-07T13:35:12;27.20;28.60
40630;DHT22;26329;40.388;-3.710;2023-05-07T13:45:13;27.40;28.20
40630;DHT22;26329;40.388;-3.710;2023-05-07T13:55:14;27.70;27.70
40630;DHT22;26329;40.388;-3.710;2023-05-07T14:05:15;28.00;27.20
40630;DHT22;26329;40.388;-3.710;2023-05-07T14:15:16;27.70;27.60
40630;DHT22;26329;40.388;-3.710;2023-05-07T14:25:16;27.60;27.40
40630;DHT22;26329;40.388;-3.710;2023-05-07T14:35:17;27.30;27.60
40630;DHT22;26329;40.388;-3.710;2023-05-07T14:45:18;27.20;28.00
40630;DHT22;26329;40.388;-3.710;2023-05-07T14:55:19;26.90;28.30
40630;DHT22;26329;40.388;-3.710;2023-05-07T15:05:19;27.00;28.10
40630;DHT22;26329;40.388;-3.710;2023-05-07T15:15:20;27.20;27.90
40630;DHT22;26329;40.388;-3.710;2023-05-07T15:25:21;27.30;27.80
40630;DHT22;26329;40.388;-3.710;2023-05-07T15:35:22;27.50;27.40
40630;DHT22;26329;40.388;-3.710;2023-05-07T15:45:24;27.20;28.20
40630;DHT22;26329;40.388;-3.710;2023-05-07T15:55:24;27.20;27.80
40630;DHT22;26329;40.388;-3.710;2023-05-07T16:05:25;27.70;27.10
40630;DHT22;26329;40.388;-3.710;2023-05-07T16:15:26;27.40;27.00
40630;DHT22;26329;40.388;-3.710;2023-05-07T16:25:27;27.50;26.00
40630;DHT22;26329;40.388;-3.710;2023-05-07T16:35:27;27.80;25.50
40630;DHT22;26329;40.388;-3.710;2023-05-07T16:45:28;27.80;25.30
40630;DHT22;26329;40.388;-3.710;2023-05-07T16:55:29;27.70;25.50
40630;DHT22;26329;40.388;-3.710;2023-05-07T17:05:34;27.70;25.30
40630;DHT22;26329;40.388;-3.710;2023-05-07T17:15:35;27.70;25.20
40630;DHT22;26329;40.388;-3.710;2023-05-07T17:25:35;27.70;25.50
40630;DHT22;26329;40.388;-3.710;2023-05-07T17:35:36;27.60;25.50
40630;DHT22;26329;40.388;-3.710;2023-05-07T17:45:37;27.30;26.30
40630;DHT22;26329;40.388;-3.710;2023-05-07T17:55:43;27.10;26.70
40630;DHT22;26329;40.388;-3.710;2023-05-07T18:05:44;26.90;27.10
40630;DHT22;26329;40.388;-3.710;2023-05-07T18:15:45;26.60;27.10
40630;DHT22;26329;40.388;-3.710;2023-05-07T18:25:46;26.40;27.30
40630;DHT22;26329;40.388;-3.710;2023-05-07T18:35:46;26.20;26.80
40630;DHT22;26329;40.388;-3.710;2023-05-07T18:45:47;25.90;26.60
40630;DHT22;26329;40.388;-3.710;2023-05-07T18:55:49;25.70;27.00
40630;DHT22;26329;40.388;-3.710;2023-05-07T19:05:50;25.40;27.60
40630;DHT22;26329;40.388;-3.710;2023-05-07T19:15:51;25.20;27.70
40630;DHT22;26329;40.388;-3.710;2023-05-07T19:25:52;25.00;27.70
40630;DHT22;26329;40.388;-3.710;2023-05-07T19:35:53;24.80;27.70
40630;DHT22;26329;40.388;-3.710;2023-05-07T19:45:57;24.60;28.20
40630;DHT22;26329;40.388;-3.710;2023-05-07T19:56:06;24.40;28.70
40630;DHT22;26329;40.388;-3.710;2023-05-07T20:06:07;24.30;29.20
40630;DHT22;26329;40.388;-3.710;2023-05-07T20:16:08;24.30;29.80
40630;DHT22;26329;40.388;-3.710;2023-05-07T20:26:09;24.30;30.00
40630;DHT22;26329;40.388;-3.710;2023-05-07T20:36:09;24.20;30.10
40630;DHT22;26329;40.388;-3.710;2023-05-07T20:46:10;24.10;30.00
40630;DHT22;26329;40.388;-3.710;2023-05-07T20:56:11;23.80;30.20
40630;DHT22;26329;40.388;-3.710;2023-05-07T21:06:12;23.70;30.20
40630;DHT22;26329;40.388;-3.710;2023-05-07T21:16:12;23.70;30.50
40630;DHT22;26329;40.388;-3.710;2023-05-07T21:26:17;23.40;30.90
40630;DHT22;26329;40.388;-3.710;2023-05-07T21:36:18;23.40;31.70
40630;DHT22;26329;40.388;-3.710;2023-05-07T21:46:19;23.20;32.40
40630;DHT22;26329;40.388;-3.710;2023-05-07T21:56:20;22.90;33.00
40630;DHT22;26329;40.388;-3.710;2023-05-07T22:06:21;22.80;33.30
40630;DHT22;26329;40.388;-3.710;2023-05-07T22:16:22;22.70;33.70
40630;DHT22;26329;40.388;-3.710;2023-05-07T22:26:22;22.40;33.90
40630;DHT22;26329;40.388;-3.710;2023-05-07T22:36:23;22.30;34.20
40630;DHT22;26329;40.388;-3.710;2023-05-07T22:46:24;22.20;34.20
40630;DHT22;26329;40.388;-3.710;2023-05-07T22:56:25;22.00;34.20
40630;DHT22;26329;40.388;-3.710;2023-05-07T23:06:25;21.80;34.10
40630;DHT22;26329;40.388;-3.710;2023-05-07T23:16:26;21.80;34.10
40630;DHT22;26329;40.388;-3.710;2023-05-07T23:26:28;21.70;35.40
40630;DHT22;26329;40.388;-3.710;2023-05-07T23:36:28;21.60;37.00
40630;DHT22;26329;40.388;-3.710;2023-05-07T23:46:30;21.50;38.10
40630;DHT22;26329;40.388;-3.710;2023-05-07T23:56:31;21.30;39.00
